Time;durP1;ratioP1;P1;durP2;ratioP2;P2;SDS_P1;SDS_P2;PMS_P1;PMS_P2;Temp;Humidity;BMP_temperature;BMP_pressure;BME280_temperature;BME280_humidity;BME280_pressure;Samples;Min_cycle;Max_cycle;Signal;HPM_P1;HPM_P2
2023/03/26 00:00:59;;;;;;;20.48;3.75;;;7.80;99.90;;;;;;5064301;28;20036;-88
2023/03/26 00:03:26;;;;;;;14.80;3.20;;;7.80;99.90;;;;;;5045490;28;20060;-87
2023/03/26 00:06:23;;;;;;;20.30;3.58;;;7.90;99.90;;;;;;5062208;28;20052;-89
2023/03/26 00:08:50;;;;;;;16.70;3.35;;;7.80;99.90;;;;;;5042741;28;20048;-89
2023/03/26 00:11:18;;;;;;;19.25;3.75;;;7.40;99.90;;;;;;5045336;28;20399;-88
2023/03/26 00:13:45;;;;;;;15.18;3.70;;;8.40;99.90;;;;;;5061752;28;20063;-88
2023/03/26 00:16:16;;;;;;;15.60;3.10;;;7.80;99.90;;;;;;5062279;28;20036;-88
2023/03/26 00:18:43;;;;;;;19.13;3.90;;;7.70;99.90;;;;;;5063037;28;20029;-88
2023/03/26 00:21:14;;;;;;;19.58;3.92;;;5.60;99.90;;;;;;5061846;28;20035;-87
2023/03/26 00:23:41;;;;;;;21.42;3.60;;;7.80;99.90;;;;;;5062974;28;20094;-88
2023/03/26 00:26:11;;;;;;;19.30;3.72;;;7.80;99.90;;;;;;5062114;28;20036;-89
2023/03/26 00:28:39;;;;;;;16.75;3.50;;;7.70;99.90;;;;;;5045235;28;20119;-87
2023/03/26 00:31:14;;;;;;;18.23;3.72;;;7.70;99.90;;;;;;5047877;28;20497;-89
2023/03/26 00:33:40;;;;;;;18.48;4.05;;;5.60;99.90;;;;;;5056319;28;20247;-88
2023/03/26 00:36:09;;;;;;;18.63;3.80;;;7.70;99.90;;;;;;5075756;28;20457;-88
2023/03/26 00:38:37;;;;;;;14.45;3.03;;;7.70;99.90;;;;;;5060533;28;20475;-88
2023/03/26 00:41:06;;;;;;;18.85;3.35;;;7.60;99.90;;;;;;5062334;28;20143;-87
2023/03/26 00:43:34;;;;;;;18.88;3.75;;;7.50;99.90;;;;;;5062006;28;20670;-88
2023/03/26 00:46:01;;;;;;;17.67;3.67;;;7.50;99.90;;;;;;5045271;28;20182;-88
2023/03/26 00:48:28;;;;;;;20.20;3.78;;;7.70;99.90;;;;;;5061484;28;20044;-88
2023/03/26 00:50:55;;;;;;;15.75;3.30;;;7.60;99.90;;;;;;5045988;28;20044;-87
2023/03/26 00:53:21;;;;;;;16.15;3.30;;;7.40;99.90;;;;;;5059823;28;20485;-88
2023/03/26 00:55:47;;;;;;;16.38;3.60;;;;;;;;;;5049015;28;20047;-88
2023/03/26 00:58:14;;;;;;;21.63;3.67;;;7.40;99.90;;;;;;5065676;28;20047;-88
2023/03/26 01:00:56;;;;;;;21.65;3.65;;;7.30;99.90;;;;;;5049115;28;20397;-88
2023/03/26 01:03:23;;;;;;;17.83;3.40;;;7.40;99.90;;;;;;5047789;28;20040;-88
2023/03/26 01:06:08;;;;;;;19.33;3.60;;;7.40;99.90;;;;;;5064901;28;20053;-89
2023/03/26 01:08:39;;;;;;;20.17;3.20;;;8.30;99.90;;;;;;5064630;28;20116;-90
2023/03/26 01:11:14;;;;;;;16.60;3.67;;;7.40;99.90;;;;;;5067680;28;20044;-89
2023/03/26 01:13:50;;;;;;;19.23;4.50;;;7.40;99.90;;;;;;5063953;28;20405;-90
2023/03/26 01:16:28;;;;;;;19.77;3.72;;;7.40;99.90;;;;;;5065515;28;20377;-88
2023/03/26 01:18:57;;;;;;;17.20;3.55;;;7.70;99.90;;;;;;5049792;28;20059;-88
2023/03/26 01:21:28;;;;;;;17.48;3.45;;;8.60;99.90;;;;;;5049638;28;20047;-87
2023/03/26 01:24:05;;;;;;;19.10;3.95;;;7.30;99.90;;;;;;5049234;28;20040;-89
2023/03/26 01:26:31;;;;;;;23.27;3.42;;;;;;;;;;5061920;28;20481;-88
2023/03/26 01:29:01;;;;;;;17.15;3.28;;;7.30;99.90;;;;;;5064833;28;20040;-89
2023/03/26 01:31:52;;;;;;;22.88;3.63;;;7.30;99.90;;;;;;5065028;28;20087;-88
2023/03/26 01:34:36;;;;;;;16.70;3.30;;;7.30;99.90;;;;;;5064869;28;20131;-90
2023/03/26 01:37:20;;;;;;;18.48;3.45;;;7.30;99.90;;;;;;5065151;28;20037;-88
2023/03/26 01:39:56;;;;;;;20.38;3.47;;;7.30;99.90;;;;;;5064791;28;20508;-88
2023/03/26 01:43:07;;;;;;;14.93;3.05;;;7.20;99.90;;;;;;5047038;28;20549;-88
2023/03/26 01:45:37;;;;;;;20.83;3.50;;;7.20;99.90;;;;;;5076613;28;20068;-87
2023/03/26 01:48:05;;;;;;;17.05;3.03;;;7.10;99.90;;;;;;5061639;28;20055;-89
2023/03/26 01:50:30;;;;;;;17.42;3.65;;;7.10;99.90;;;;;;5062371;28;20434;-88
2023/03/26 01:52:56;;;;;;;17.10;3.38;;;7.10;99.90;;;;;;5032330;28;20037;-88
2023/03/26 01:55:32;;;;;;;18.95;3.88;;;7.00;99.90;;;;;;5046586;28;20044;-88
2023/03/26 01:58:08;;;;;;;16.13;3.40;;;7.00;99.90;;;;;;5047035;28;20032;-88
2023/03/26 02:00:53;;;;;;;19.13;3.72;;;7.00;99.90;;;;;;5061076;28;20041;-88
2023/03/26 02:03:48;;;;;;;20.90;3.58;;;7.10;99.90;;;;;;5048110;28;20040;-87
2023/03/26 02:06:30;;;;;;;17.48;3.50;;;7.00;99.90;;;;;;5062296;28;20064;-87
2023/03/26 02:09:01;;;;;;;16.35;3.30;;;7.00;99.90;;;;;;5064782;28;20043;-88
2023/03/26 02:11:27;;;;;;;16.05;3.63;;;6.90;99.90;;;;;;5062226;28;20033;-88
2023/03/26 02:13:53;;;;;;;17.52;3.60;;;7.00;99.90;;;;;;5050118;28;20093;-88
2023/03/26 02:16:19;;;;;;;20.38;3.47;;;7.00;99.90;;;;;;5030154;28;20733;-88
2023/03/26 02:18:50;;;;;;;19.25;3.47;;;7.20;99.90;;;;;;5031771;28;20116;-87
2023/03/26 02:21:22;;;;;;;18.10;3.88;;;8.10;99.90;;;;;;5064816;28;20055;-88
2023/03/26 02:23:56;;;;;;;18.95;3.30;;;7.00;99.90;;;;;;5059920;28;20108;-87
2023/03/26 02:26:22;;;;;;;20.92;3.63;;;6.90;99.90;;;;;;5047501;28;20052;-88
2023/03/26 02:28:48;;;;;;;16.90;3.22;;;7.00;99.90;;;;;;5061623;28;20090;-87
2023/03/26 02:31:16;;;;;;;20.77;3.90;;;;;;;;;;5064928;28;20072;-88
2023/03/26 02:33:43;;;;;;;17.50;3.90;;;7.00;99.90;;;;;;5061548;28;20115;-88
2023/03/26 02:36:12;;;;;;;21.88;3.45;;;7.00;99.90;;;;;;5065070;28;20036;-89
2023/03/26 02:38:38;;;;;;;19.85;3.40;;;7.00;99.90;;;;;;5058889;28;20564;-88
2023/03/26 02:41:04;;;;;;;19.35;3.75;;;7.00;99.90;;;;;;5016801;28;20565;-88
2023/03/26 02:43:30;;;;;;;19.25;3.65;;;7.00;99.90;;;;;;5047369;28;20036;-88
2023/03/26 02:45:56;;;;;;;18.27;3.50;;;7.00;99.90;;;;;;5028341;28;20516;-88
2023/03/26 02:48:22;;;;;;;23.77;4.00;;;7.00;99.90;;;;;;5046252;28;20042;-88
2023/03/26 02:50:52;;;;;;;15.35;2.90;;;7.80;99.90;;;;;;5063242;28;20401;-87
2023/03/26 02:53:20;;;;;;;24.27;4.15;;;7.00;99.90;;;;;;5062886;28;20047;-87
2023/03/26 02:55:47;;;;;;;21.73;4.03;;;5.00;99.90;;;;;;5064357;28;20512;-88
2023/03/26 02:58:16;;;;;;;20.30;4.68;;;8.30;99.90;;;;;;5061865;28;20051;-87
2023/03/26 03:00:42;;;;;;;16.58;3.30;;;7.00;99.90;;;;;;5045378;28;20032;-88
2023/03/26 03:03:08;;;;;;;22.77;3.38;;;7.00;99.90;;;;;;5030404;28;20137;-88
2023/03/26 03:05:36;;;;;;;20.65;3.42;;;;;;;;;;5046893;28;20106;-89
2023/03/26 03:08:04;;;;;;;16.50;3.35;;;;;;;;;;5063806;28;20067;-87
2023/03/26 03:10:34;;;;;;;21.17;3.38;;;7.00;99.90;;;;;;5046749;28;20036;-87
2023/03/26 03:12:59;;;;;;;15.52;3.22;;;7.00;99.90;;;;;;5063313;28;20048;-88
2023/03/26 03:15:27;;;;;;;18.30;3.45;;;7.00;99.90;;;;;;5047085;28;20048;-87
2023/03/26 03:17:53;;;;;;;16.73;3.47;;;;;;;;;;5062865;28;20147;-88
2023/03/26 03:20:20;;;;;;;18.27;3.88;;;7.00;99.90;;;;;;5046643;28;20136;-88
2023/03/26 03:22:46;;;;;;;16.27;3.38;;;7.00;99.90;;;;;;5047604;28;20040;-88
2023/03/26 03:25:13;;;;;;;16.40;2.95;;;7.00;99.90;;;;;;5062679;28;20132;-88
2023/03/26 03:27:41;;;;;;;19.67;3.55;;;7.00;99.90;;;;;;5045409;28;20084;-88
2023/03/26 03:30:09;;;;;;;18.10;3.50;;;7.80;99.90;;;;;;5062006;28;20055;-88
2023/03/26 03:32:35;;;;;;;18.92;3.67;;;7.00;99.90;;;;;;5063784;28;20044;-87
2023/03/26 03:35:01;;;;;;;17.52;3.15;;;7.00;99.90;;;;;;5062704;28;20048;-88
2023/03/26 03:37:27;;;;;;;23.10;4.30;;;7.00;99.90;;;;;;5045131;28;20044;-88
2023/03/26 03:39:52;;;;;;;17.52;3.65;;;7.00;99.90;;;;;;5062884;28;20036;-87
2023/03/26 03:42:18;;;;;;;18.60;3.95;;;8.30;99.90;;;;;;5063218;28;20044;-88
2023/03/26 03:44:45;;;;;;;19.88;3.90;;;7.00;99.90;;;;;;5047097;28;20032;-88
2023/03/26 03:47:12;;;;;;;19.85;3.35;;;6.90;99.90;;;;;;5046579;28;20052;-88
2023/03/26 03:49:39;;;;;;;16.70;3.10;;;6.90;99.90;;;;;;5030639;28;21422;-88
2023/03/26 03:52:05;;;;;;;17.60;3.25;;;6.90;99.90;;;;;;5063781;28;20052;-88
2023/03/26 03:54:34;;;;;;;17.65;3.63;;;6.80;99.90;;;;;;5046347;28;20449;-88
2023/03/26 03:57:00;;;;;;;16.60;3.50;;;6.90;99.90;;;;;;5027450;28;20071;-87
2023/03/26 03:59:26;;;;;;;20.25;3.55;;;6.80;99.90;;;;;;5045668;28;20497;-88
2023/03/26 04:01:52;;;;;;;16.33;3.30;;;6.70;99.90;;;;;;5063754;28;20067;-88
2023/03/26 04:04:20;;;;;;;18.50;4.20;;;7.00;99.90;;;;;;5029094;28;20089;-88
2023/03/26 04:06:46;;;;;;;17.80;3.38;;;6.50;99.90;;;;;;5062579;28;20131;-88
2023/03/26 04:09:11;;;;;;;20.38;4.00;;;7.80;99.90;;;;;;5047405;28;20401;-87
2023/03/26 04:11:37;;;;;;;17.60;3.40;;;;;;;;;;5059873;28;20063;-89
2023/03/26 04:14:03;;;;;;;19.58;4.15;;;6.60;99.90;;;;;;5044950;28;20105;-88
2023/03/26 04:16:29;;;;;;;15.02;3.30;;;7.60;99.90;;;;;;5061213;28;20127;-88
2023/03/26 04:18:56;;;;;;;19.20;3.63;;;8.20;99.90;;;;;;5027965;28;20048;-87
2023/03/26 04:21:23;;;;;;;18.95;3.55;;;7.50;99.90;;;;;;5029494;28;20481;-88
2023/03/26 04:23:48;;;;;;;18.48;3.65;;;6.50;99.90;;;;;;5062227;28;20041;-88
2023/03/26 04:26:18;;;;;;;22.23;4.32;;;8.10;99.90;;;;;;5016712;28;20044;-87
2023/03/26 04:28:46;;;;;;;14.85;3.42;;;6.50;99.90;;;;;;5064290;28;20044;-87
2023/03/26 04:31:16;;;;;;;13.65;3.30;;;6.50;99.90;;;;;;5065288;28;20047;-87
2023/03/26 04:33:47;;;;;;;19.88;3.30;;;6.50;99.90;;;;;;5067643;28;20064;-87
2023/03/26 04:36:15;;;;;;;24.25;3.88;;;6.50;99.90;;;;;;5046359;28;20040;-88
2023/03/26 04:38:48;;;;;;;20.20;3.10;;;6.50;99.90;;;;;;5066462;28;20067;-88
2023/03/26 04:41:14;;;;;;;;;;;7.80;99.90;;;;;;5063590;28;20040;-87
2023/03/26 04:43:45;;;;;;;19.00;2.80;;;6.50;99.90;;;;;;5050158;28;20067;-87
2023/03/26 04:46:13;;;;;;;21.92;4.00;;;6.50;99.90;;;;;;5063176;28;20079;-88
2023/03/26 04:48:39;;;;;;;17.92;3.72;;;6.50;99.90;;;;;;5029625;28;20040;-88
2023/03/26 04:51:16;;;;;;;19.73;4.00;;;6.50;99.90;;;;;;5031734;28;20290;-88
2023/03/26 04:53:49;;;;;;;19.65;3.55;;;6.50;99.90;;;;;;5064046;28;20072;-89
2023/03/26 04:56:34;;;;;;;16.83;3.30;;;6.50;99.90;;;;;;5066079;28;20036;-89
2023/03/26 04:59:00;;;;;;;18.30;3.42;;;6.50;99.90;;;;;;5047180;28;20068;-88
2023/03/26 05:01:27;;;;;;;14.85;3.33;;;6.50;99.90;;;;;;5046314;28;20056;-88
2023/03/26 05:03:53;;;;;;;15.30;3.30;;;8.00;99.90;;;;;;5065942;28;20046;-89
2023/03/26 05:06:20;;;;;;;16.13;3.03;;;6.50;99.90;;;;;;5048559;28;20048;-88
2023/03/26 05:08:47;;;;;;;19.52;3.00;;;;;;;;;;5048524;28;20119;-89
2023/03/26 05:11:12;;;;;;;19.88;3.42;;;6.50;99.90;;;;;;5065024;28;20043;-88
2023/03/26 05:13:41;;;;;;;15.43;3.70;;;6.50;99.90;;;;;;5050082;28;20064;-88
2023/03/26 05:16:09;;;;;;;17.80;2.97;;;6.50;99.90;;;;;;5030986;28;20123;-89
2023/03/26 05:18:35;;;;;;;20.05;3.38;;;6.50;99.90;;;;;;5065388;28;20401;-88
2023/03/26 05:21:01;;;;;;;14.70;2.88;;;6.50;99.90;;;;;;5032250;28;20045;-88
2023/03/26 05:23:27;;;;;;;16.40;3.17;;;7.50;99.90;;;;;;5066500;28;20040;-89
2023/03/26 05:25:53;;;;;;;18.08;3.28;;;6.40;99.90;;;;;;5063776;28;20044;-88
2023/03/26 05:28:22;;;;;;;17.80;2.72;;;6.40;99.90;;;;;;5015130;28;20400;-89
2023/03/26 05:30:47;;;;;;;15.65;2.78;;;6.50;99.90;;;;;;5066536;28;20047;-88
2023/03/26 05:33:13;;;;;;;18.00;3.42;;;8.20;99.90;;;;;;5048660;28;20044;-88
2023/03/26 05:35:39;;;;;;;23.60;3.65;;;7.00;99.90;;;;;;5016449;28;20102;-89
2023/03/26 05:38:08;;;;;;;17.30;3.17;;;8.10;99.90;;;;;;5029435;28;20190;-89
2023/03/26 05:40:33;;;;;;;17.88;3.15;;;6.40;99.90;;;;;;5048384;28;20045;-88
2023/03/26 05:42:59;;;;;;;17.27;3.97;;;6.40;99.90;;;;;;5044274;28;20134;-87
2023/03/26 05:45:25;;;;;;;21.65;3.75;;;6.40;99.90;;;;;;5045177;28;20025;-88
2023/03/26 05:47:53;;;;;;;16.05;3.30;;;6.40;99.90;;;;;;5028848;28;20107;-89
2023/03/26 05:50:18;;;;;;;24.13;3.58;;;6.40;99.90;;;;;;5049140;28;20049;-90
2023/03/26 05:52:44;;;;;;;19.38;3.42;;;6.40;99.90;;;;;;5031326;28;20036;-89
2023/03/26 05:55:10;;;;;;;19.75;3.42;;;6.40;99.90;;;;;;5047967;28;20068;-88
2023/03/26 05:57:36;;;;;;;19.60;3.70;;;6.40;99.90;;;;;;5015033;28;20120;-88
2023/03/26 06:00:04;;;;;;;15.02;3.13;;;7.30;99.90;;;;;;5015529;28;20047;-88
2023/03/26 06:02:30;;;;;;;15.73;3.20;;;6.40;99.90;;;;;;5031974;28;20116;-88
2023/03/26 06:04:56;;;;;;;15.25;3.17;;;7.30;99.90;;;;;;5013135;28;20510;-89
2023/03/26 06:07:22;;;;;;;18.55;3.65;;;7.30;99.90;;;;;;5030204;28;20044;-88
2023/03/26 06:09:48;;;;;;;16.10;3.22;;;6.40;99.90;;;;;;5045904;28;20040;-88
2023/03/26 06:12:14;;;;;;;19.30;3.42;;;6.40;99.90;;;;;;5077800;28;20131;-89
2023/03/26 06:14:41;;;;;;;19.80;3.30;;;7.10;99.90;;;;;;5063739;28;20575;-89
2023/03/26 06:17:08;;;;;;;15.02;2.90;;;6.40;99.90;;;;;;5064735;28;20076;-88
2023/03/26 06:19:34;;;;;;;18.65;3.92;;;6.50;99.90;;;;;;5047194;28;20115;-88
2023/03/26 06:22:00;;;;;;;18.42;3.50;;;6.50;99.90;;;;;;5047354;28;20462;-88
2023/03/26 06:24:26;;;;;;;16.48;2.78;;;7.70;99.90;;;;;;5032945;28;20028;-88
2023/03/26 06:26:52;;;;;;;15.55;3.20;;;7.40;99.90;;;;;;5045113;28;20441;-87
2023/03/26 06:29:18;;;;;;;14.02;2.88;;;6.50;99.90;;;;;;5037703;28;20155;-88
2023/03/26 06:31:43;;;;;;;21.13;3.95;;;7.00;99.90;;;;;;5047705;28;20041;-88
2023/03/26 06:34:09;;;;;;;20.45;3.78;;;6.50;99.90;;;;;;5047859;28;20048;-89
2023/03/26 06:36:35;;;;;;;16.77;3.60;;;6.50;99.90;;;;;;5029834;28;20515;-88
2023/03/26 06:39:02;;;;;;;16.13;2.88;;;6.50;99.90;;;;;;5013954;28;20657;-89
2023/03/26 06:41:28;;;;;;;14.32;3.25;;;6.50;99.90;;;;;;5044258;28;20134;-88
2023/03/26 06:43:54;;;;;;;20.20;3.30;;;6.50;99.90;;;;;;5043044;28;20106;-88
2023/03/26 06:46:22;;;;;;;20.05;3.00;;;6.60;99.90;;;;;;5058929;28;20044;-87
2023/03/26 06:48:48;;;;;;;22.20;3.25;;;6.60;99.90;;;;;;5027124;28;20040;-87
2023/03/26 06:51:14;;;;;;;17.83;3.72;;;6.60;99.90;;;;;;5059012;28;20702;-87
2023/03/26 06:53:40;;;;;;;20.27;3.67;;;7.60;99.90;;;;;;5062681;28;20090;-88
2023/03/26 06:56:06;;;;;;;17.45;3.20;;;6.80;99.90;;;;;;5064249;28;20048;-87
2023/03/26 06:58:32;;;;;;;15.90;3.35;;;6.70;99.90;;;;;;5047787;28;20037;-89
2023/03/26 07:00:58;;;;;;;15.00;3.25;;;6.70;99.90;;;;;;5031873;28;20094;-88
2023/03/26 07:03:23;;;;;;;22.55;3.70;;;6.70;99.90;;;;;;5045256;28;20051;-88
2023/03/26 07:05:49;;;;;;;20.13;3.30;;;7.00;99.90;;;;;;5044455;28;20098;-87
2023/03/26 07:08:15;;;;;;;16.63;3.10;;;8.20;99.90;;;;;;5030785;28;20442;-88
2023/03/26 07:10:41;;;;;;;19.98;3.72;;;6.90;99.90;;;;;;5046297;28;20516;-89
2023/03/26 07:13:12;;;;;;;16.10;2.80;;;6.70;99.90;;;;;;5113977;27;1478170;-81
2023/03/26 07:15:37;;;;;;;14.80;2.70;;;6.80;99.90;;;;;;5097218;27;20043;-80
2023/03/26 07:18:03;;;;;;;22.00;3.88;;;6.90;99.90;;;;;;5103055;27;20092;-81
2023/03/26 07:20:29;;;;;;;14.13;2.72;;;6.90;99.90;;;;;;5099036;27;20035;-81
2023/03/26 07:22:55;;;;;;;14.18;3.13;;;6.90;99.90;;;;;;5130403;27;20251;-81
2023/03/26 07:25:21;;;;;;;14.98;3.00;;;6.90;99.90;;;;;;5091854;27;20039;-81
2023/03/26 07:28:17;;;;;;;14.85;2.80;;;6.90;99.90;;;;;;5129480;27;20479;-81
2023/03/26 07:30:58;;;;;;;17.20;2.88;;;7.00;99.90;;;;;;5118904;27;20035;-81
2023/03/26 07:33:38;;;;;;;15.98;2.80;;;7.00;99.90;;;;;;5117935;27;20576;-80
2023/03/26 07:36:30;;;;;;;14.98;3.08;;;7.00;99.90;;;;;;5118748;27;20163;-82
2023/03/26 07:39:10;;;;;;;13.30;3.17;;;7.10;99.90;;;;;;5097531;27;20046;-81
2023/03/26 07:41:49;;;;;;;17.02;3.20;;;7.10;99.90;;;;;;5105116;27;20038;-81
2023/03/26 07:44:35;;;;;;;17.88;2.72;;;7.10;99.90;;;;;;5103996;27;20047;-81
2023/03/26 07:47:04;;;;;;;17.58;3.50;;;7.50;99.90;;;;;;5117855;27;20047;-82
2023/03/26 07:49:31;;;;;;;19.20;3.17;;;7.20;99.90;;;;;;5125214;27;20038;-81
2023/03/26 07:51:57;;;;;;;18.77;3.28;;;7.20;99.90;;;;;;5113556;27;20504;-81
2023/03/26 07:54:23;;;;;;;17.30;3.30;;;7.20;99.90;;;;;;5109436;27;20034;-81
2023/03/26 07:57:02;;;;;;;15.10;3.22;;;7.20;99.90;;;;;;5121268;27;20038;-81
2023/03/26 07:59:48;;;;;;;17.05;4.05;;;7.20;99.90;;;;;;5124554;27;20035;-80
2023/03/26 08:02:35;;;;;;;18.75;3.25;;;7.20;99.90;;;;;;5107575;27;20043;-80
2023/03/26 08:05:30;;;;;;;15.27;3.22;;;7.10;99.90;;;;;;5123613;27;20071;-80
2023/03/26 08:08:21;;;;;;;13.88;2.42;;;7.10;99.90;;;;;;5093830;27;20065;-80
2023/03/26 08:11:09;;;;;;;14.05;3.20;;;7.20;99.90;;;;;;5103487;27;20034;-81
2023/03/26 08:13:58;;;;;;;11.95;2.72;;;7.00;99.90;;;;;;5122893;27;20168;-80
2023/03/26 08:16:49;;;;;;;15.80;3.42;;;7.40;99.90;;;;;;5121479;27;20412;-81
2023/03/26 08:19:27;;;;;;;16.52;3.10;;;7.50;99.90;;;;;;5094234;27;20047;-81
2023/03/26 08:22:01;;;;;;;15.82;2.92;;;7.70;99.90;;;;;;5103856;27;20038;-81
2023/03/26 08:24:52;;;;;;;13.23;2.83;;;7.90;99.90;;;;;;5107363;27;20083;-80
2023/03/26 08:27:59;;;;;;;17.63;3.00;;;7.80;99.90;;;;;;5105259;27;20046;-81
2023/03/26 08:30:26;;;;;;;15.40;2.72;;;7.90;99.90;;;;;;5082186;27;20134;-81
2023/03/26 08:33:17;;;;;;;17.05;3.10;;;8.00;99.90;;;;;;5111283;27;20737;-80
2023/03/26 08:35:44;;;;;;;14.18;3.03;;;8.00;99.90;;;;;;5096297;27;20066;-80
2023/03/26 08:38:20;;;;;;;15.18;2.72;;;8.00;99.90;;;;;;5112646;27;20303;-80
2023/03/26 08:40:51;;;;;;;15.70;2.60;;;8.10;99.90;;;;;;5090467;27;20043;-80
2023/03/26 08:43:43;;;;;;;14.85;3.40;;;8.10;99.90;;;;;;5114374;27;20042;-80
2023/03/26 08:46:38;;;;;;;13.77;3.40;;;8.10;99.90;;;;;;5102537;27;20032;-81
2023/03/26 08:49:46;;;;;;;18.73;2.70;;;8.00;99.90;;;;;;5103395;27;20559;-80
2023/03/26 08:52:42;;;;;;;11.00;2.30;;;7.90;99.90;;;;;;5106191;27;20122;-80
2023/03/26 08:56:21;;;;;;;13.07;2.78;;;7.80;99.90;;;;;;5107022;27;20043;-80
2023/03/26 08:59:17;;;;;;;13.80;2.35;;;8.00;99.90;;;;;;4944739;28;20058;-80
2023/03/26 09:01:50;;;;;;;17.27;3.33;;;8.30;99.90;;;;;;4986462;28;20443;-80
2023/03/26 09:04:40;;;;;;;23.83;3.35;;;8.50;99.90;;;;;;5104148;27;20043;-81
2023/03/26 09:07:15;;;;;;;13.05;2.63;;;8.40;99.90;;;;;;5110158;27;20130;-81
2023/03/26 09:10:00;;;;;;;16.35;2.60;;;8.40;99.90;;;;;;5115294;27;20503;-81
2023/03/26 09:13:00;;;;;;;13.70;2.85;;;8.40;99.90;;;;;;5114879;27;20059;-81
2023/03/26 09:15:26;;;;;;;16.73;3.15;;;8.40;99.90;;;;;;5092243;27;20054;-81
2023/03/26 09:18:36;;;;;;;15.50;3.10;;;8.40;99.90;;;;;;5094825;27;20496;-81
2023/03/26 09:21:17;;;;;;;14.63;2.67;;;8.50;99.90;;;;;;5043268;28;20045;-81
2023/03/26 09:24:14;;;;;;;12.98;2.63;;;8.60;99.90;;;;;;5013752;28;20512;-81
2023/03/26 09:26:40;;;;;;;12.90;2.50;;;8.70;99.90;;;;;;5100512;27;20088;-81
2023/03/26 09:29:43;;;;;;;17.92;3.35;;;8.80;99.90;;;;;;5115358;27;20074;-81
2023/03/26 09:32:46;;;;;;;15.77;2.90;;;8.70;99.90;;;;;;5093115;27;20077;-81
2023/03/26 09:35:26;;;;;;;15.95;3.50;;;8.50;99.90;;;;;;5107384;27;20045;-80
2023/03/26 09:38:10;;;;;;;14.45;2.67;;;8.50;99.90;;;;;;5107591;27;20038;-80
2023/03/26 09:40:41;;;;;;;;;;;8.40;99.90;;;;;;5105661;27;20104;-80
2023/03/26 09:43:25;;;;;;;15.45;2.75;;;8.40;99.90;;;;;;5107783;27;19917;-80
2023/03/26 09:46:19;;;;;;;17.38;3.53;;;8.40;99.90;;;;;;5103438;27;20045;-81
2023/03/26 09:49:04;;;;;;;19.98;3.35;;;8.30;99.90;;;;;;5083734;27;20423;-81
2023/03/26 09:51:37;;;;;;;16.30;2.90;;;8.30;99.90;;;;;;5107508;27;20032;-81
2023/03/26 09:54:24;;;;;;;18.17;3.22;;;8.10;99.90;;;;;;5090136;27;20046;-81
2023/03/26 09:57:01;;;;;;;17.27;3.05;;;8.10;99.90;;;;;;5090415;27;20109;-81
2023/03/26 09:59:27;;;;;;;14.48;2.58;;;8.00;99.90;;;;;;5108388;27;20058;-81
2023/03/26 10:01:59;;;;;;;16.90;2.95;;;8.00;99.90;;;;;;5107445;27;20501;-80
2023/03/26 10:04:39;;;;;;;12.93;3.10;;;8.00;99.90;;;;;;5087898;27;20050;-80
2023/03/26 10:07:20;;;;;;;14.55;3.15;;;7.90;99.90;;;;;;5107693;27;20070;-81
2023/03/26 10:09:49;;;;;;;12.63;2.88;;;7.90;99.90;;;;;;5118931;27;20043;-81
2023/03/26 10:12:47;;;;;;;16.88;2.95;;;8.00;99.90;;;;;;5113979;27;20074;-80
2023/03/26 10:16:05;;;;;;;15.00;3.42;;;8.00;99.90;;;;;;5090429;27;21324;-80
2023/03/26 10:19:03;;;;;;;15.18;3.45;;;8.10;99.90;;;;;;4982246;28;20049;-81
2023/03/26 10:21:40;;;;;;;15.18;2.95;;;8.10;99.90;;;;;;4981810;28;20041;-81
2023/03/26 10:24:21;;;;;;;16.08;2.83;;;8.10;99.90;;;;;;5075716;27;20047;-81
2023/03/26 10:27:06;;;;;;;15.40;3.13;;;8.10;99.90;;;;;;5103549;27;20046;-80
2023/03/26 10:30:15;;;;;;;17.13;2.63;;;8.10;99.90;;;;;;5095684;27;20515;-81
2023/03/26 10:33:07;;;;;;;18.05;3.25;;;8.10;99.90;;;;;;5099861;27;20051;-81
2023/03/26 10:35:58;;;;;;;15.55;3.05;;;8.10;99.90;;;;;;5116402;27;20031;-80
2023/03/26 10:38:45;;;;;;;15.63;2.63;;;8.10;99.90;;;;;;5118993;27;20031;-81
2023/03/26 10:41:30;;;;;;;14.80;3.92;;;8.10;99.90;;;;;;5108950;27;20031;-80
2023/03/26 10:44:04;;;;;;;12.80;3.28;;;8.10;99.90;;;;;;5094291;27;20047;-81
2023/03/26 10:46:41;;;;;;;14.48;2.88;;;8.20;99.90;;;;;;5111761;27;20039;-81
2023/03/26 10:49:13;;;;;;;11.52;2.85;;;8.20;99.90;;;;;;5104996;27;20054;-80
2023/03/26 10:51:50;;;;;;;15.52;2.83;;;8.20;99.90;;;;;;5108445;27;20549;-81
2023/03/26 10:54:23;;;;;;;17.10;2.80;;;8.20;99.90;;;;;;5090118;28;20039;-80
2023/03/26 10:56:51;;;;;;;10.43;3.00;;;8.30;99.90;;;;;;5106739;27;20458;-81
2023/03/26 10:59:17;;;;;;;13.80;2.67;;;8.30;99.90;;;;;;5108741;27;20055;-81
2023/03/26 11:02:11;;;;;;;13.25;2.42;;;8.40;99.90;;;;;;5077983;27;20047;-81
2023/03/26 11:05:06;;;;;;;14.55;3.33;;;8.60;99.90;;;;;;5088621;28;20038;-81
2023/03/26 11:08:05;;;;;;;17.83;3.80;;;8.80;99.90;;;;;;5087140;27;20045;-81
2023/03/26 11:10:47;;;;;;;12.48;2.90;;;9.10;99.90;;;;;;5101045;27;20046;-81
2023/03/26 11:13:37;;;;;;;13.13;2.80;;;9.00;99.90;;;;;;5095953;28;20068;-81
2023/03/26 11:16:18;;;;;;;12.23;2.35;;;8.80;99.90;;;;;;5095942;28;20051;-81
2023/03/26 11:18:47;;;;;;;21.88;3.30;;;8.70;99.90;;;;;;5095809;28;20189;-81
2023/03/26 11:21:12;;;;;;;15.15;2.78;;;8.60;99.90;;;;;;5114115;28;20031;-81
2023/03/26 11:23:56;;;;;;;13.07;2.70;;;8.60;99.90;;;;;;5112663;28;20549;-81
2023/03/26 11:26:43;;;;;;;18.58;2.83;;;8.60;99.90;;;;;;5107438;28;20035;-81
2023/03/26 11:29:36;;;;;;;14.15;2.90;;;8.60;99.90;;;;;;5102547;27;20074;-82
2023/03/26 11:32:12;;;;;;;12.52;2.90;;;8.60;99.90;;;;;;5096111;28;20035;-81
2023/03/26 11:35:00;;;;;;;14.10;2.95;;;8.60;99.90;;;;;;5089793;28;20043;-81
2023/03/26 11:37:38;;;;;;;13.85;2.58;;;8.50;99.90;;;;;;5117012;28;20502;-81
2023/03/26 11:40:13;;;;;;;13.13;2.40;;;8.50;99.90;;;;;;5110827;28;20043;-81
2023/03/26 11:42:40;;;;;;;11.75;2.70;;;8.40;99.90;;;;;;5089526;28;20392;-81
2023/03/26 11:45:18;;;;;;;16.42;3.15;;;8.40;99.90;;;;;;5093193;28;20050;-81
2023/03/26 11:47:49;;;;;;;17.15;2.83;;;8.30;99.90;;;;;;5099028;28;20213;-81
2023/03/26 11:50:25;;;;;;;11.48;2.30;;;8.30;99.90;;;;;;5115916;27;20066;-81
2023/03/26 11:52:51;;;;;;;12.93;2.70;;;8.30;99.90;;;;;;5092085;28;20047;-81
2023/03/26 11:55:17;;;;;;;16.20;3.13;;;8.30;99.90;;;;;;5096566;28;20484;-81
2023/03/26 11:57:52;;;;;;;8.93;2.35;;;8.30;99.90;;;;;;5110858;27;20046;-81
2023/03/26 12:00:26;;;;;;;14.20;2.53;;;8.30;99.90;;;;;;5097097;27;20510;-81
2023/03/26 12:02:55;;;;;;;14.68;2.67;;;8.30;99.90;;;;;;5099709;27;20403;-81
2023/03/26 12:05:25;;;;;;;13.63;2.67;;;8.50;99.90;;;;;;5114262;27;20035;-81
2023/03/26 12:08:03;;;;;;;13.82;2.55;;;8.70;99.90;;;;;;5103419;27;20032;-81
2023/03/26 12:10:29;;;;;;;13.30;2.35;;;8.80;99.90;;;;;;5122792;27;20043;-81
2023/03/26 12:12:59;;;;;;;15.02;2.85;;;8.70;99.90;;;;;;5102858;27;20500;-81
2023/03/26 12:15:26;;;;;;;12.75;2.20;;;8.60;99.90;;;;;;5109682;27;20442;-81
2023/03/26 12:17:55;;;;;;;16.13;2.88;;;8.50;99.90;;;;;;5098841;27;20049;-81
2023/03/26 12:20:24;;;;;;;14.43;2.65;;;8.50;99.90;;;;;;5099197;27;20161;-81
2023/03/26 12:22:58;;;;;;;13.15;2.42;;;8.40;99.90;;;;;;5121139;27;20047;-81
2023/03/26 12:25:29;;;;;;;12.77;3.28;;;8.30;99.90;;;;;;5096341;27;20042;-81
2023/03/26 12:28:13;;;;;;;15.35;2.83;;;8.40;99.90;;;;;;5098273;27;20039;-81
2023/03/26 12:30:41;;;;;;;11.52;2.60;;;8.30;99.90;;;;;;5122569;27;20038;-81
2023/03/26 12:33:24;;;;;;;13.80;2.83;;;8.30;99.90;;;;;;5114650;27;20043;-81
2023/03/26 12:35:51;;;;;;;12.27;2.25;;;8.30;99.90;;;;;;5098733;27;20035;-81
2023/03/26 12:38:32;;;;;;;15.55;3.47;;;8.30;99.90;;;;;;5097117;27;20041;-81
2023/03/26 12:41:16;;;;;;;16.10;2.60;;;8.30;99.90;;;;;;5128124;27;20058;-81
2023/03/26 12:43:43;;;;;;;12.63;2.55;;;8.30;99.90;;;;;;5119477;27;20063;-81
2023/03/26 12:46:31;;;;;;;12.10;2.55;;;8.30;99.90;;;;;;5116657;27;20525;-81
2023/03/26 12:49:05;;;;;;;16.50;3.53;;;8.30;99.90;;;;;;5111783;27;20038;-81
2023/03/26 12:51:57;;;;;;;12.60;2.75;;;8.50;99.90;;;;;;5119505;27;20426;-81
2023/03/26 12:54:50;;;;;;;16.17;2.85;;;8.60;99.90;;;;;;5111430;27;20023;-81
2023/03/26 12:57:32;;;;;;;12.63;2.60;;;8.60;99.90;;;;;;5110956;27;20466;-82
2023/03/26 13:00:25;;;;;;;22.60;3.25;;;8.50;99.90;;;;;;5117115;27;20035;-81
2023/03/26 13:02:57;;;;;;;;;;;8.60;99.90;;;;;;5097555;27;20114;-81
2023/03/26 13:05:58;;;;;;;13.75;2.72;;;8.40;99.90;;;;;;5104845;27;20391;-81
2023/03/26 13:08:38;;;;;;;12.55;2.60;;;7.70;99.90;;;;;;5114109;27;20164;-81
2023/03/26 13:11:12;;;;;;;11.10;2.40;;;8.20;99.90;;;;;;5107072;27;20618;-81
2023/03/26 13:13:57;;;;;;;9.63;2.10;;;8.30;99.90;;;;;;5110950;27;20043;-81
2023/03/26 13:16:39;;;;;;;14.70;2.55;;;8.60;99.90;;;;;;5110067;27;20070;-80
2023/03/26 13:19:08;;;;;;;11.25;2.17;;;8.70;99.90;;;;;;5092873;27;20511;-80
2023/03/26 13:22:01;;;;;;;15.77;2.40;;;8.90;99.90;;;;;;5112252;27;20043;-81
2023/03/26 13:24:58;;;;;;;9.50;2.17;;;8.90;99.90;;;;;;5103665;27;20031;-81
2023/03/26 13:27:34;;;;;;;10.52;2.35;;;8.90;99.90;;;;;;5113698;27;20031;-81